Latest Weather Observations for Wynyard

IDT60801

Issued at 8:31 am EST Saturday 7 May 2016 (issued every 30 minutes, with the page automatically refreshed every 10 minutes)

About weather observations | Map of weather stations | Latest weather observations for TAS | Other Formats
Station Details ID: 091107 Name: WYNYARD AIRPORT Lat: -41.00 Lon: 145.73 Height: 12.0 m
Data from the previous 72 hours. | See also: Recent months at Wynyard
Date/Time
EST
Temp
°C
App
Temp
°C
Dew
Point
Rel
Hum
%
Delta-T
°C
Wind Press
QNH
hPa
Press
MSL
hPa
Rain
since 9 am
mm
Dir
 
Spd
km/h
Gust
km/h
Spd
kts
Gust
kts
07/08:30am 9.9 8.4 9.1 95 0.4 W 7 9 4 5 1017.8 1017.8 0.2
07/08:00am 9.3 7.6 8.5 95 0.4 SSW 7 11 4 6 1017.8 1017.8 0.2
07/07:30am 9.1 7.0 8.2 94 0.4 WNW 9 13 5 7 1017.6 1017.6 0.2
07/07:00am 8.8 6.6 7.9 94 0.4 WNW 9 13 5 7 1017.2 1017.2 0.0
07/06:30am 8.7 6.5 7.8 94 0.4 WNW 9 11 5 6 1017.0 1017.0 0.0
07/06:00am 8.5 6.2 7.6 94 0.4 WNW 9 13 5 7 1017.1 1017.1 0.0
07/05:30am 8.1 5.4 7.3 95 0.4 WNW 11 13 6 7 1016.8 1016.9 0.0
07/05:00am 7.8 5.4 7.1 95 0.3 WNW 9 11 5 6 1016.5 1016.6 0.0
07/04:30am 7.0 4.1 6.3 95 0.3 WNW 11 11 6 6 1016.2 1016.3 0.0
07/04:00am 7.4 4.6 6.8 96 0.3 WNW 11 13 6 7 1016.4 1016.5 0.0
07/03:30am 7.1 4.2 6.5 96 0.3 WNW 11 13 6 7 1016.2 1016.3 0.0
07/03:00am 6.6 3.6 6.0 96 0.3 W 11 13 6 7 1016.3 1016.4 0.0
07/02:30am 6.2 3.1 5.6 96 0.3 WNW 11 11 6 6 1016.4 1016.5 0.0
07/02:00am 5.9 3.1 5.3 96 0.3 W 9 13 5 7 1016.3 1016.4 0.0
07/01:30am 6.0 3.3 5.4 96 0.3 WNW 9 11 5 6 1016.4 1016.5 0.0
07/01:00am 6.1 3.0 5.5 96 0.3 WNW 11 13 6 7 1016.3 1016.4 0.0
07/12:30am 6.0 2.9 5.4 96 0.3 W 11 13 6 7 1016.4 1016.5 0.0
07/12:00am 6.1 3.0 5.5 96 0.3 W 11 13 6 7 1016.5 1016.6 0.0
 
Date/Time
EST
Temp
°C
App
Temp
°C
Dew
Point
Rel
Hum
%
Delta-T
°C
Wind Press
QNH
hPa
Press
MSL
hPa
Rain
since 9 am
mm
Dir
 
Spd
km/h
Gust
km/h
Spd
kts
Gust
kts
06/11:30pm 6.1 3.0 5.5 96 0.3 WNW 11 13 6 7 1016.5 1016.6 0.0
06/11:00pm 6.5 3.9 5.9 96 0.3 WNW 9 11 5 6 1016.6 1016.7 0.0
06/10:30pm 6.2 2.7 5.5 95 0.3 W 13 15 7 8 1016.5 1016.6 0.0
06/10:00pm 6.1 3.3 5.2 94 0.4 W 9 9 5 5 1016.5 1016.6 0.0
06/09:30pm 7.8 6.0 7.1 95 0.3 W 6 7 3 4 1016.2 1016.3 0.0
06/09:00pm 7.8 6.0 7.1 95 0.3 W 6 9 3 5 1016.1 1016.2 0.0
06/08:30pm 7.5 5.3 6.4 93 0.5 W 7 9 4 5 1015.9 1016.0 0.0
06/08:00pm 8.0 6.0 6.9 93 0.5 WSW 7 9 4 5 1015.6 1015.7 0.0
06/07:30pm 7.9 5.4 6.5 91 0.6 SW 9 9 5 5 1015.4 1015.5 0.0
06/07:00pm 9.8 8.1 8.2 90 0.8 SW 7 7 4 4 1015.1 1015.2 0.0
06/06:30pm 10.0 8.4 7.8 86 1.1 WSW 6 7 3 4 1014.6 1014.7 0.0
06/06:00pm 11.6 9.6 6.9 73 2.2 WNW 7 9 4 5 1014.3 1014.4 0.0
06/05:30pm 12.4 9.6 6.9 69 2.6 WNW 11 13 6 7 1013.7 1013.8 0.0
06/05:00pm 13.9 10.7 7.0 63 3.4 WNW 13 15 7 8 1013.4 1013.5 0.0
06/04:30pm 15.0 11.0 6.8 58 4.0 W 17 20 9 11 1013.2 1013.3 0.0
06/04:00pm 15.1 10.7 6.4 56 4.2 W 19 24 10 13 1012.9 1013.0 0.0
06/03:30pm 15.7 9.8 5.6 51 4.8 W 26 37 14 20 1012.7 1012.8 0.0
06/03:00pm 16.1 10.0 6.5 53 4.7 W 28 39 15 21 1012.4 1012.5 0.0
06/02:30pm 17.2 12.5 9.4 60 4.1 WNW 24 32 13 17 1012.0 1012.1 0.0
06/02:00pm 16.6 13.7 10.9 69 3.1 WSW 17 26 9 14 1011.8 1011.9 0.0
06/01:30pm 17.9 13.5 10.5 62 4.0 WNW 24 32 13 17 1011.8 1011.9 0.0
06/01:00pm 17.5 12.4 10.6 64 3.7 WNW 28 37 15 20 1012.0 1012.1 0.0
06/12:30pm 16.5 11.9 9.7 64 3.6 NW 24 32 13 17 1012.3 1012.4 0.0
06/12:00pm 17.2 13.3 10.8 66 3.4 WNW 22 32 12 17 1012.6 1012.7 0.0
06/11:30am 16.1 12.7 10.4 69 3.0 WNW 19 28 10 15 1012.9 1013.0 0.0
06/11:00am 16.1 13.1 10.6 70 2.9 WNW 17 20 9 11 1013.0 1013.1 0.0
06/10:30am 16.1 14.2 11.7 75 2.4 WNW 13 22 7 12 1012.8 1012.9 0.0
06/10:00am 14.7 12.9 10.9 78 2.0 WNW 11 15 6 8 1012.9 1013.0 0.0
06/09:30am 13.7 11.9 10.7 82 1.6 W 11 15 6 8 1012.7 1012.8 0.0
06/09:00am 13.6 12.1 10.4 81 1.7 WNW 9 11 5 6 1012.5 1012.6 4.0
06/08:30am 12.9 11.9 11.1 89 0.9 W 7 9 4 5 1012.3 1012.4 4.0
06/08:00am 12.7 11.3 10.9 89 0.9 W 9 11 5 6 1011.8 1011.9 4.0
06/07:30am 12.8 11.0 10.9 88 1.0 W 11 13 6 7 1011.4 1011.5 4.0
06/07:00am 12.5 11.4 10.6 88 1.0 W 7 9 4 5 1010.7 1010.8 4.0
06/06:30am 13.0 10.1 10.9 87 1.1 WSW 17 24 9 13 1010.2 1010.3 4.0
06/06:00am 13.5 10.8 11.7 89 1.0 W 17 22 9 12 1010.1 1010.2 3.8
06/05:30am 14.1 12.0 12.3 89 1.0 W 15 19 8 10 1009.3 1009.4 3.8
06/05:00am 14.6 12.2 12.6 88 1.1 W 17 22 9 12 1008.5 1008.6 3.4
06/04:47am 14.9 10.8 12.6 86 1.3 WNW 26 37 14 20 1008.3 1008.4 3.4
06/04:30am 15.5 11.3 13.5 88 1.1 WNW 28 37 15 20 1008.2 1008.3 3.4
06/04:25am 15.7 11.2 13.7 88 1.1 WNW 30 43 16 23 1008.2 1008.3 3.4
06/04:02am 15.8 11.6 13.5 86 1.3 NW 28 46 15 25 1007.7 1007.7 3.4
06/04:00am 15.7 11.8 13.4 86 1.3 NW 26 39 14 21 1007.7 1007.7 3.4
06/03:30am 15.8 13.3 13.6 87 1.2 NW 19 30 10 16 1007.6 1007.6 3.4
06/03:00am 15.8 12.7 13.5 86 1.3 NW 22 37 12 20 1007.8 1007.8 3.2
06/02:33am 15.7 12.2 13.5 87 1.2 NW 24 43 13 23 1007.7 1007.7 3.0
06/02:30am 15.5 12.1 13.7 89 1.0 NW 24 30 13 16 1007.8 1007.8 3.0
06/02:17am 15.6 11.7 13.4 87 1.2 NW 26 41 14 22 1007.7 1007.7 2.4
06/02:10am 15.7 11.5 13.5 87 1.2 WNW 28 37 15 20 1007.7 1007.7 1.8
06/02:00am 16.0 10.8 13.3 84 1.5 NW 33 44 18 24 1007.6 1007.6 1.2
06/01:52am 16.4 11.5 13.7 84 1.5 NW 32 44 17 24 1007.6 1007.6 1.2
06/01:30am 16.8 12.1 13.3 80 2.0 NW 30 44 16 24 1007.2 1007.2 0.4
06/01:00am 17.1 13.2 13.4 79 2.1 NW 26 37 14 20 1007.2 1007.2 0.2
06/12:30am 17.2 12.5 13.3 78 2.2 NW 30 44 16 24 1007.4 1007.4 0.2
06/12:00am 17.2 13.3 13.3 78 2.2 NW 26 43 14 23 1007.4 1007.4 0.2
 
Date/Time
EST
Temp
°C
App
Temp
°C
Dew
Point
Rel
Hum
%
Delta-T
°C
Wind Press
QNH
hPa
Press
MSL
hPa
Rain
since 9 am
mm
Dir
 
Spd
km/h
Gust
km/h
Spd
kts
Gust
kts
05/11:40pm 17.4 11.7 13.1 76 2.4 NNW 35 54 19 29 1007.4 1007.4 0.2
05/11:30pm 17.7 11.6 13.0 74 2.6 NNW 37 54 20 29 1007.4 1007.4 0.2
05/11:08pm 17.5 13.1 13.0 75 2.5 NNW 28 46 15 25 1007.6 1007.6 0.2
05/11:00pm 17.5 13.5 13.0 75 2.5 NW 26 39 14 21 1007.7 1007.7 0.2
05/10:30pm 17.6 14.3 12.9 74 2.6 NW 22 35 12 19 1008.0 1008.1 0.2
05/10:00pm 17.8 13.6 12.3 70 3.1 NW 26 41 14 22 1008.3 1008.4 0.2
05/09:47pm 17.9 13.2 12.1 69 3.2 NW 28 46 15 25 1008.3 1008.4 0.2
05/09:30pm 17.7 14.2 12.2 70 3.0 NW 22 39 12 21 1008.4 1008.5 0.2
05/09:00pm 17.0 14.7 13.1 78 2.2 WNW 17 30 9 16 1008.7 1008.8 0.2
05/08:30pm 17.1 13.8 12.8 76 2.4 NNW 22 33 12 18 1008.8 1008.9 0.2
05/08:00pm 16.8 14.6 13.3 80 2.0 NNW 17 24 9 13 1009.0 1009.1 0.2
05/07:30pm 17.0 13.6 12.5 75 2.5 NW 22 33 12 18 1009.1 1009.2 0.2
05/07:00pm 16.8 14.4 12.7 77 2.3 NNW 17 24 9 13 1008.9 1009.0 0.2
05/06:30pm 16.7 13.9 12.7 77 2.2 NW 19 30 10 16 1008.9 1009.0 0.2
05/06:00pm 16.7 13.6 12.3 75 2.4 NW 20 30 11 16 1008.7 1008.8 0.2
05/05:30pm 16.9 13.1 12.4 75 2.5 NW 24 33 13 18 1008.7 1008.8 0.2
05/05:00pm 16.9 13.0 12.2 74 2.6 NNW 24 35 13 19 1008.6 1008.7 0.2
05/04:30pm 16.9 12.2 12.0 73 2.7 NNW 28 46 15 25 1008.6 1008.7 0.2
05/04:18pm 16.9 12.1 11.8 72 2.8 NNW 28 50 15 27 1008.7 1008.8 0.2
05/04:00pm 16.6 12.6 11.7 73 2.7 NNW 24 43 13 23 1008.8 1008.9 0.2
05/03:43pm 16.3 11.7 12.3 77 2.2 NNW 28 46 15 25 1008.9 1009.0 0.2
05/03:30pm 16.8 11.3 11.7 72 2.8 NNW 32 46 17 25 1008.8 1008.9 0.2
05/03:00pm 16.8 11.3 11.9 73 2.7 NNW 32 44 17 24 1009.0 1009.1 0.2
05/02:30pm 16.8 10.3 11.7 72 2.8 NNW 37 52 20 28 1009.0 1009.1 0.2
05/02:23pm 16.9 11.4 12.0 73 2.7 NNW 32 50 17 27 1009.1 1009.2 0.2
05/02:00pm 16.6 11.0 11.5 72 2.8 NW 32 43 17 23 1009.1 1009.2 0.2
05/01:30pm 16.8 11.8 12.1 74 2.6 NNW 30 50 16 27 1009.4 1009.5 0.2
05/01:25pm 16.6 11.1 11.7 73 2.7 NNW 32 50 17 27 1009.4 1009.5 0.2
05/01:00pm 16.8 11.1 11.9 73 2.7 NNW 33 48 18 26 1009.6 1009.7 0.2
05/12:30pm 16.6 12.0 12.2 75 2.4 NW 28 46 15 25 1010.0 1010.1 0.2
05/12:25pm 16.7 12.0 12.0 74 2.6 NW 28 46 15 25 1010.1 1010.2 0.2
05/12:00pm 16.6 12.0 12.2 75 2.4 NW 28 43 15 23 1010.5 1010.6 0.2
05/11:30am 16.3 10.9 12.1 76 2.3 NW 32 44 17 24 1010.9 1011.0 0.2
05/11:20am 16.3 11.6 11.9 75 2.4 NW 28 46 15 25 1011.1 1011.2 0.2
05/11:00am 15.6 10.2 12.2 80 1.9 NW 32 48 17 26 1011.3 1011.4 0.2
05/10:35am 15.8 10.7 12.0 78 2.1 NW 30 48 16 26 1011.4 1011.5 0.2
05/10:30am 15.9 11.2 12.1 78 2.1 NW 28 44 15 24 1011.3 1011.4 0.2
05/10:06am 15.6 10.7 12.4 81 1.8 NW 30 48 16 26 1011.5 1011.6 0.2
05/10:00am 15.7 10.3 12.3 80 1.9 NW 32 48 17 26 1011.5 1011.6 0.2
05/09:46am 15.4 10.4 12.2 81 1.7 NW 30 46 16 25 1011.6 1011.7 0.2
05/09:45am 15.3 10.6 12.1 81 1.7 NW 28 46 15 25 1011.6 1011.7 0.2
05/09:30am 14.8 11.1 12.8 88 1.1 NW 24 35 13 19 1011.6 1011.7 0.2
05/09:22am 15.0 10.2 13.0 88 1.1 NW 30 48 16 26 1011.7 1011.8 0.2
05/09:20am 15.0 9.9 13.0 88 1.1 NW 32 48 17 26 1011.7 1011.8 0.2
05/09:07am 15.3 10.7 12.4 83 1.6 NW 28 52 15 28 1011.7 1011.8 0.0
05/09:00am 15.3 11.0 13.2 87 1.2 NW 28 44 15 24 1011.7 1011.8 5.2
05/08:44am 15.1 10.8 13.1 88 1.1 NW 28 41 15 22 1011.7 1011.8 5.2
05/08:38am 15.0 10.7 13.2 89 1.0 NW 28 43 15 23 1011.7 1011.8 5.2
05/08:30am 14.7 10.0 13.2 91 0.8 NW 30 48 16 26 1011.6 1011.7 5.2
05/08:29am 14.7 10.0 13.2 91 0.8 NW 30 48 16 26 1011.6 1011.7 5.2
05/08:15am 14.6 9.8 12.8 89 1.0 NW 30 46 16 25 1011.7 1011.8 5.0
05/08:05am 14.4 10.0 13.0 91 0.8 NW 28 39 15 21 1011.7 1011.8 5.0
05/08:00am 14.4 9.3 13.0 91 0.8 NW 32 46 17 25 1011.6 1011.7 5.0
05/07:49am 14.1 8.9 12.8 92 0.7 NW 32 50 17 27 1011.5 1011.6 5.0
05/07:31am 14.0 8.5 12.6 91 0.8 NW 33 52 18 28 1011.4 1011.5 4.8
05/07:30am 13.9 8.4 12.5 91 0.8 NW 33 50 18 27 1011.4 1011.5 4.8
05/07:22am 14.1 9.2 12.5 90 0.9 NW 30 48 16 26 1011.3 1011.4 4.4
05/07:11am 14.3 9.4 12.5 89 1.0 NW 30 46 16 25 1011.2 1011.3 4.4
05/07:07am 14.4 9.8 12.4 88 1.1 NW 28 46 15 25 1011.2 1011.3 4.2
05/07:00am 14.2 10.5 12.6 90 0.9 NW 24 35 13 19 1011.2 1011.3 4.2
05/06:57am 14.2 10.5 12.6 90 0.9 NW 24 32 13 17 1011.1 1011.2 4.2
05/06:55am 14.1 9.9 12.5 90 0.9 NW 26 37 14 20 1011.2 1011.3 4.2
05/06:44am 14.2 10.5 12.6 90 0.9 NW 24 43 13 23 1011.1 1011.2 4.2
05/06:39am 14.2 11.2 12.6 90 0.9 NW 20 32 11 17 1011.1 1011.2 4.2
05/06:38am 14.2 10.8 12.6 90 0.9 NW 22 32 12 17 1011.1 1011.2 4.2
05/06:30am 14.2 10.0 12.4 89 1.0 NW 26 33 14 18 1011.1 1011.2 4.2
05/06:10am 14.6 9.9 11.9 84 1.5 NW 28 43 15 23 1011.0 1011.1 4.0
05/06:00am 14.8 10.5 11.9 83 1.6 NW 26 35 14 19 1010.8 1010.9 4.0
05/05:30am 14.6 9.5 11.9 84 1.5 NW 30 41 16 22 1010.8 1010.9 4.0
05/05:20am 14.7 9.9 11.8 83 1.6 WNW 28 46 15 25 1010.6 1010.7 3.8
05/05:00am 14.6 8.8 11.4 81 1.7 NW 33 46 18 25 1010.6 1010.7 3.8
05/04:30am 15.1 9.2 11.3 78 2.0 NW 33 46 18 25 1010.4 1010.5 3.8
05/04:16am 14.9 8.3 11.3 79 1.9 NW 37 56 20 30 1010.4 1010.5 3.8
05/04:00am 15.0 9.2 11.4 79 1.9 NW 33 46 18 25 1010.4 1010.5 3.8
05/03:30am 14.9 9.2 11.1 78 2.0 WNW 32 52 17 28 1010.4 1010.5 3.8
05/03:28am 14.7 9.4 11.1 79 1.9 WNW 30 50 16 27 1010.5 1010.6 3.8
05/03:00am 14.7 9.0 11.1 79 1.9 NW 32 43 17 23 1010.5 1010.6 3.8
05/02:48am 14.6 9.2 11.0 79 1.9 WNW 30 50 16 27 1010.6 1010.7 3.8
05/02:30am 14.3 9.0 11.3 82 1.6 NW 30 43 16 23 1010.6 1010.7 3.8
05/02:14am 13.8 9.0 11.5 86 1.2 WNW 28 43 15 23 1010.7 1010.8 3.8
05/02:00am 13.4 8.6 11.8 90 0.9 WNW 28 41 15 22 1010.7 1010.8 3.6
05/01:46am 13.9 8.3 11.6 86 1.2 WNW 32 46 17 25 1010.7 1010.8 2.8
05/01:38am 14.1 9.1 11.1 82 1.6 WNW 28 46 15 25 1010.6 1010.7 2.6
05/01:35am 13.8 8.8 11.1 84 1.4 WNW 28 43 15 23 1010.7 1010.8 2.6
05/01:30am 13.8 8.1 11.1 84 1.4 WNW 32 48 17 26 1010.7 1010.8 2.6
05/01:15am 14.3 8.1 11.3 82 1.6 NW 35 59 19 32 1010.7 1010.8 2.4
05/01:01am 14.9 9.9 11.1 78 2.0 NW 28 50 15 27 1010.6 1010.7 2.4
05/01:00am 14.7 9.7 11.1 79 1.9 NW 28 43 15 23 1010.7 1010.8 2.4
05/12:30am 13.6 10.3 11.5 87 1.1 WNW 20 28 11 15 1010.8 1010.9 2.4
05/12:00am 12.8 8.6 11.0 89 0.9 WNW 24 32 13 17 1011.1 1011.2 2.4
 
Date/Time
EST
Temp
°C
App
Temp
°C
Dew
Point
Rel
Hum
%
Delta-T
°C
Wind Press
QNH
hPa
Press
MSL
hPa
Rain
since 9 am
mm
Dir
 
Spd
km/h
Gust
km/h
Spd
kts
Gust
kts
04/11:48pm 12.7 9.3 11.3 91 0.7 WNW 20 28 11 15 1011.1 1011.2 2.4
04/11:30pm 12.8 8.2 11.0 89 0.9 WNW 26 37 14 20 1011.4 1011.5 1.8
04/11:23pm 12.8 8.5 10.9 88 1.0 WNW 24 32 13 17 1011.4 1011.5 1.6
04/11:00pm 13.0 7.2 10.7 86 1.2 WNW 32 41 17 22 1011.3 1011.4 1.6
04/10:57pm 13.0 7.2 10.7 86 1.2 WNW 32 41 17 22 1011.2 1011.3 1.6
04/10:39pm 13.7 7.4 11.0 84 1.4 NW 35 56 19 30 1011.4 1011.5 1.4
04/10:35pm 14.3 9.1 10.3 77 2.1 NW 28 50 15 27 1011.1 1011.2 1.2
04/10:30pm 13.8 10.3 10.8 82 1.6 WNW 20 30 11 16 1011.1 1011.2 1.2
04/10:00pm 12.4 9.4 10.5 88 1.0 WNW 17 22 9 12 1011.4 1011.5 1.2
04/09:38pm 12.7 8.0 10.6 87 1.1 WNW 26 33 14 18 1011.5 1011.6 1.2
04/09:30pm 12.7 8.4 10.8 88 1.0 WNW 24 33 13 18 1011.5 1011.6 1.2
04/09:19pm 13.0 9.4 10.7 86 1.2 WNW 20 30 11 16 1011.6 1011.7 1.0
04/09:00pm 12.9 8.4 10.1 83 1.4 WNW 24 33 13 18 1011.4 1011.5 0.6
04/08:53pm 13.1 8.2 10.1 82 1.5 WNW 26 33 14 18 1011.4 1011.5 0.6
04/08:41pm 13.1 7.9 10.3 83 1.4 NW 28 52 15 28 1011.4 1011.5 0.6
04/08:40pm 13.1 8.3 10.3 83 1.4 NW 26 52 14 28 1011.4 1011.5 0.6
04/08:30pm 12.7 9.5 10.1 84 1.3 WNW 17 22 9 12 1011.2 1011.3 0.6
04/08:00pm 12.3 8.7 9.7 84 1.3 WNW 19 24 10 13 1011.3 1011.4 0.6
04/07:34pm 12.3 7.7 9.7 84 1.3 WNW 24 32 13 17 1011.3 1011.4 0.6
04/07:30pm 12.3 7.4 9.9 85 1.2 WNW 26 43 14 23 1011.3 1011.4 0.6
04/07:17pm 12.6 6.5 9.8 83 1.4 NW 32 54 17 29 1011.1 1011.2 0.6
04/07:15pm 12.9 7.2 9.7 81 1.6 NW 30 54 16 29 1011.1 1011.2 0.6
04/07:00pm 13.4 7.9 9.3 76 2.1 NW 28 37 15 20 1010.9 1011.0 0.4
04/06:30pm 12.4 8.5 9.6 83 1.4 WNW 20 26 11 14 1010.8 1010.9 0.4
04/06:22pm 12.1 8.3 9.7 85 1.2 WNW 20 26 11 14 1010.6 1010.7 0.4
04/06:05pm 12.5 7.1 9.5 82 1.5 NW 28 43 15 23 1010.6 1010.7 0.4
04/06:00pm 12.8 8.5 9.3 79 1.8 NW 22 37 12 20 1010.5 1010.6 0.4
04/05:30pm 12.8 8.3 8.5 75 2.1 WNW 22 33 12 18 1010.2 1010.3 0.4
04/05:00pm 12.8 8.7 8.7 76 2.1 WNW 20 26 11 14 1009.9 1010.0 0.4
04/04:30pm 13.3 10.0 8.0 70 2.6 NW 15 26 8 14 1009.9 1010.0 0.4
04/04:00pm 12.9 8.4 8.4 74 2.2 WNW 22 32 12 17 1009.9 1010.0 0.4
04/03:47pm 13.0 7.3 8.3 73 2.3 WNW 28 48 15 26 1009.9 1010.0 0.4
04/03:30pm 13.7 9.4 7.7 67 3.0 WNW 20 28 11 15 1009.6 1009.7 0.4
04/03:00pm 13.5 8.7 7.5 67 2.9 WNW 22 33 12 18 1009.6 1009.7 0.4
04/02:30pm 13.4 8.8 8.0 70 2.7 WNW 22 32 12 17 1009.5 1009.6 0.4
04/02:13pm 13.1 7.7 9.5 79 1.8 WNW 28 48 15 26 1009.8 1009.9 0.4
04/02:00pm 13.4 9.3 8.7 73 2.4 WNW 20 32 11 17 1009.5 1009.6 0.4
04/01:30pm 12.9 8.1 9.0 77 2.0 WNW 24 30 13 16 1009.4 1009.5 0.4
04/01:00pm 14.3 10.2 8.7 69 2.8 WNW 20 28 11 15 1009.5 1009.6 0.2
04/12:30pm 12.4 8.1 7.9 74 2.2 WNW 20 28 11 15 1009.7 1009.8 0.2
04/12:00pm 12.3 7.8 6.8 69 2.6 W 20 24 11 13 1010.0 1010.1 0.0
04/11:30am 13.5 7.3 6.1 61 3.5 WNW 28 37 15 20 1010.0 1010.1 0.0
04/11:00am 13.3 7.0 5.9 61 3.5 WNW 28 43 15 23 1010.0 1010.1 0.0
04/10:30am 12.6 6.7 5.8 63 3.2 WNW 26 35 14 19 1010.0 1010.1 0.0
04/10:00am 12.7 8.5 7.4 70 2.6 W 19 24 10 13 1010.1 1010.2 0.0
04/09:30am 10.6 7.2 6.0 73 2.1 WSW 13 15 7 8 1010.0 1010.1 0.0
04/09:00am 8.8 6.5 5.5 80 1.5 WSW 7 11 4 6 1009.8 1009.9 11.6

Other Formats:

Comma delimited format used in spreadsheet applications
http://www.bom.gov.au/fwo/IDT60801/IDT60801.95957.axf

JavaScript Object Notation format (JSON) in row-major order
http://www.bom.gov.au/fwo/IDT60801/IDT60801.95957.json